sensor_id;sensor_type;location;lat;lon;timestamp;P1;durP1;ratioP1;P2;durP2;ratioP2
13785;SDS011;47474;48.824;9.384;2023-11-21T00:00:36;2.93;;;2.10;;
13785;SDS011;47474;48.824;9.384;2023-11-21T00:03:03;5.03;;;2.23;;
13785;SDS011;47474;48.824;9.384;2023-11-21T00:05:31;3.10;;;1.90;;
13785;SDS011;47474;48.824;9.384;2023-11-21T00:07:58;8.20;;;1.87;;
13785;SDS011;47474;48.824;9.384;2023-11-21T00:10:24;4.17;;;1.87;;
13785;SDS011;47474;48.824;9.384;2023-11-21T00:12:51;2.40;;;1.50;;
13785;SDS011;47474;48.824;9.384;2023-11-21T00:15:20;5.07;;;2.10;;
13785;SDS011;47474;48.824;9.384;2023-11-21T00:17:46;3.70;;;1.87;;
13785;SDS011;47474;48.824;9.384;2023-11-21T00:20:14;5.40;;;1.63;;
13785;SDS011;47474;48.824;9.384;2023-11-21T00:22:41;4.40;;;1.77;;
13785;SDS011;47474;48.824;9.384;2023-11-21T00:25:08;5.23;;;2.07;;
13785;SDS011;47474;48.824;9.384;2023-11-21T00:27:35;6.47;;;1.73;;
13785;SDS011;47474;48.824;9.384;2023-11-21T00:30:02;5.33;;;1.83;;
13785;SDS011;47474;48.824;9.384;2023-11-21T00:32:30;4.67;;;2.00;;
13785;SDS011;47474;48.824;9.384;2023-11-21T00:34:57;3.47;;;1.90;;
13785;SDS011;47474;48.824;9.384;2023-11-21T00:37:25;4.23;;;1.77;;
13785;SDS011;47474;48.824;9.384;2023-11-21T00:39:52;3.63;;;1.60;;
13785;SDS011;47474;48.824;9.384;2023-11-21T00:42:18;3.67;;;1.80;;
13785;SDS011;47474;48.824;9.384;2023-11-21T00:44:46;2.23;;;1.80;;
13785;SDS011;47474;48.824;9.384;2023-11-21T00:47:13;2.93;;;1.90;;
13785;SDS011;47474;48.824;9.384;2023-11-21T00:49:39;1.93;;;1.53;;
13785;SDS011;47474;48.824;9.384;2023-11-21T00:52:06;3.67;;;1.63;;
13785;SDS011;47474;48.824;9.384;2023-11-21T00:54:34;3.77;;;2.57;;
13785;SDS011;47474;48.824;9.384;2023-11-21T00:57:01;3.10;;;1.50;;
13785;SDS011;47474;48.824;9.384;2023-11-21T00:59:28;4.33;;;1.63;;
13785;SDS011;47474;48.824;9.384;2023-11-21T01:01:55;3.33;;;1.73;;
13785;SDS011;47474;48.824;9.384;2023-11-21T01:04:25;4.03;;;1.73;;
13785;SDS011;47474;48.824;9.384;2023-11-21T01:06:51;4.70;;;1.70;;
13785;SDS011;47474;48.824;9.384;2023-11-21T01:09:18;4.13;;;1.70;;
13785;SDS011;47474;48.824;9.384;2023-11-21T01:11:46;4.97;;;2.10;;
13785;SDS011;47474;48.824;9.384;2023-11-21T01:14:12;3.70;;;1.70;;
13785;SDS011;47474;48.824;9.384;2023-11-21T01:16:39;5.33;;;1.87;;
13785;SDS011;47474;48.824;9.384;2023-11-21T01:19:05;2.10;;;1.60;;
13785;SDS011;47474;48.824;9.384;2023-11-21T01:21:32;2.93;;;1.83;;
13785;SDS011;47474;48.824;9.384;2023-11-21T01:23:58;5.10;;;1.80;;
13785;SDS011;47474;48.824;9.384;2023-11-21T01:26:24;3.23;;;1.80;;
13785;SDS011;47474;48.824;9.384;2023-11-21T01:28:52;5.53;;;1.83;;
13785;SDS011;47474;48.824;9.384;2023-11-21T01:31:19;4.50;;;1.57;;
13785;SDS011;47474;48.824;9.384;2023-11-21T01:33:46;3.70;;;1.63;;
13785;SDS011;47474;48.824;9.384;2023-11-21T01:36:13;3.23;;;1.57;;
13785;SDS011;47474;48.824;9.384;2023-11-21T01:38:40;6.57;;;1.87;;
13785;SDS011;47474;48.824;9.384;2023-11-21T01:41:07;1.83;;;1.40;;
13785;SDS011;47474;48.824;9.384;2023-11-21T01:43:33;3.43;;;1.53;;
13785;SDS011;47474;48.824;9.384;2023-11-21T01:46:01;3.67;;;1.37;;
13785;SDS011;47474;48.824;9.384;2023-11-21T01:48:28;3.10;;;1.53;;
13785;SDS011;47474;48.824;9.384;2023-11-21T01:50:54;4.93;;;1.67;;
13785;SDS011;47474;48.824;9.384;2023-11-21T01:53:21;5.07;;;1.30;;
13785;SDS011;47474;48.824;9.384;2023-11-21T01:55:50;5.33;;;1.50;;
13785;SDS011;47474;48.824;9.384;2023-11-21T01:58:17;3.77;;;1.70;;
13785;SDS011;47474;48.824;9.384;2023-11-21T02:00:43;5.20;;;1.60;;
13785;SDS011;47474;48.824;9.384;2023-11-21T02:03:11;5.20;;;1.63;;
13785;SDS011;47474;48.824;9.384;2023-11-21T02:05:38;9.63;;;1.40;;
13785;SDS011;47474;48.824;9.384;2023-11-21T02:08:04;4.37;;;1.70;;
13785;SDS011;47474;48.824;9.384;2023-11-21T02:10:31;2.27;;;1.17;;
13785;SDS011;47474;48.824;9.384;2023-11-21T02:12:58;2.10;;;1.43;;
13785;SDS011;47474;48.824;9.384;2023-11-21T02:15:27;4.43;;;1.60;;
13785;SDS011;47474;48.824;9.384;2023-11-21T02:17:54;3.10;;;1.30;;
13785;SDS011;47474;48.824;9.384;2023-11-21T02:20:24;3.80;;;1.37;;
13785;SDS011;47474;48.824;9.384;2023-11-21T02:22:55;3.77;;;2.00;;
13785;SDS011;47474;48.824;9.384;2023-11-21T02:25:24;2.67;;;1.40;;
13785;SDS011;47474;48.824;9.384;2023-11-21T02:27:51;2.00;;;1.20;;
13785;SDS011;47474;48.824;9.384;2023-11-21T02:30:19;2.70;;;1.50;;
13785;SDS011;47474;48.824;9.384;2023-11-21T02:32:46;1.57;;;1.10;;
13785;SDS011;47474;48.824;9.384;2023-11-21T02:35:13;3.20;;;1.40;;
13785;SDS011;47474;48.824;9.384;2023-11-21T02:37:40;3.80;;;1.43;;
13785;SDS011;47474;48.824;9.384;2023-11-21T02:40:09;3.23;;;1.40;;
13785;SDS011;47474;48.824;9.384;2023-11-21T02:42:37;2.40;;;1.30;;
13785;SDS011;47474;48.824;9.384;2023-11-21T02:45:04;3.70;;;1.53;;
13785;SDS011;47474;48.824;9.384;2023-11-21T02:47:32;2.00;;;1.20;;
13785;SDS011;47474;48.824;9.384;2023-11-21T02:49:58;2.87;;;1.13;;
13785;SDS011;47474;48.824;9.384;2023-11-21T02:52:25;3.53;;;1.20;;
13785;SDS011;47474;48.824;9.384;2023-11-21T02:54:52;3.00;;;1.20;;
13785;SDS011;47474;48.824;9.384;2023-11-21T02:57:19;2.70;;;1.20;;
13785;SDS011;47474;48.824;9.384;2023-11-21T02:59:46;1.80;;;1.00;;
13785;SDS011;47474;48.824;9.384;2023-11-21T03:02:12;1.80;;;1.10;;
13785;SDS011;47474;48.824;9.384;2023-11-21T03:04:40;2.77;;;1.20;;
13785;SDS011;47474;48.824;9.384;2023-11-21T03:07:07;4.20;;;1.47;;
13785;SDS011;47474;48.824;9.384;2023-11-21T03:09:34;1.70;;;1.07;;
13785;SDS011;47474;48.824;9.384;2023-11-21T03:12:01;2.17;;;1.10;;
13785;SDS011;47474;48.824;9.384;2023-11-21T03:14:28;1.33;;;1.23;;
13785;SDS011;47474;48.824;9.384;2023-11-21T03:16:55;5.90;;;1.87;;
13785;SDS011;47474;48.824;9.384;2023-11-21T03:19:21;2.10;;;1.27;;
13785;SDS011;47474;48.824;9.384;2023-11-21T03:21:48;2.20;;;1.20;;
13785;SDS011;47474;48.824;9.384;2023-11-21T03:24:14;2.33;;;0.80;;
13785;SDS011;47474;48.824;9.384;2023-11-21T03:26:44;3.80;;;1.30;;
13785;SDS011;47474;48.824;9.384;2023-11-21T03:29:10;2.90;;;1.10;;
13785;SDS011;47474;48.824;9.384;2023-11-21T03:31:38;1.23;;;1.00;;
13785;SDS011;47474;48.824;9.384;2023-11-21T03:34:05;1.30;;;1.03;;
13785;SDS011;47474;48.824;9.384;2023-11-21T03:36:31;1.33;;;1.20;;
13785;SDS011;47474;48.824;9.384;2023-11-21T03:38:58;2.17;;;1.20;;
13785;SDS011;47474;48.824;9.384;2023-11-21T03:41:24;2.63;;;1.23;;
13785;SDS011;47474;48.824;9.384;2023-11-21T03:43:50;1.83;;;1.33;;
13785;SDS011;47474;48.824;9.384;2023-11-21T03:46:17;2.77;;;1.00;;
13785;SDS011;47474;48.824;9.384;2023-11-21T03:48:45;1.50;;;1.07;;
13785;SDS011;47474;48.824;9.384;2023-11-21T03:51:11;1.07;;;0.90;;
13785;SDS011;47474;48.824;9.384;2023-11-21T03:53:38;1.90;;;1.00;;
13785;SDS011;47474;48.824;9.384;2023-11-21T03:56:04;2.97;;;1.40;;
13785;SDS011;47474;48.824;9.384;2023-11-21T03:58:31;2.07;;;1.10;;
13785;SDS011;47474;48.824;9.384;2023-11-21T04:00:58;4.10;;;1.10;;
13785;SDS011;47474;48.824;9.384;2023-11-21T04:03:24;2.60;;;1.10;;
13785;SDS011;47474;48.824;9.384;2023-11-21T04:05:52;1.40;;;1.00;;
13785;SDS011;47474;48.824;9.384;2023-11-21T04:08:19;1.97;;;0.80;;
13785;SDS011;47474;48.824;9.384;2023-11-21T04:10:45;2.23;;;1.10;;
13785;SDS011;47474;48.824;9.384;2023-11-21T04:13:11;2.83;;;0.90;;
13785;SDS011;47474;48.824;9.384;2023-11-21T04:15:38;2.30;;;1.00;;
13785;SDS011;47474;48.824;9.384;2023-11-21T04:18:05;2.50;;;1.50;;
13785;SDS011;47474;48.824;9.384;2023-11-21T04:20:31;1.23;;;1.00;;
13785;SDS011;47474;48.824;9.384;2023-11-21T04:22:59;1.90;;;0.90;;
13785;SDS011;47474;48.824;9.384;2023-11-21T04:25:26;3.07;;;1.10;;
13785;SDS011;47474;48.824;9.384;2023-11-21T04:27:53;1.83;;;0.97;;
13785;SDS011;47474;48.824;9.384;2023-11-21T04:30:19;1.73;;;0.70;;
13785;SDS011;47474;48.824;9.384;2023-11-21T04:32:46;2.47;;;1.07;;
13785;SDS011;47474;48.824;9.384;2023-11-21T04:35:12;0.93;;;0.77;;
13785;SDS011;47474;48.824;9.384;2023-11-21T04:37:40;2.50;;;1.17;;
13785;SDS011;47474;48.824;9.384;2023-11-21T04:40:08;2.10;;;0.90;;
13785;SDS011;47474;48.824;9.384;2023-11-21T04:42:35;3.13;;;1.77;;
13785;SDS011;47474;48.824;9.384;2023-11-21T04:45:02;2.63;;;1.10;;
13785;SDS011;47474;48.824;9.384;2023-11-21T04:47:32;1.20;;;0.90;;
13785;SDS011;47474;48.824;9.384;2023-11-21T04:49:59;2.57;;;1.53;;
13785;SDS011;47474;48.824;9.384;2023-11-21T04:52:25;2.10;;;1.23;;
13785;SDS011;47474;48.824;9.384;2023-11-21T04:54:52;3.13;;;1.00;;
13785;SDS011;47474;48.824;9.384;2023-11-21T04:57:20;1.83;;;1.00;;
13785;SDS011;47474;48.824;9.384;2023-11-21T04:59:47;1.37;;;1.00;;
13785;SDS011;47474;48.824;9.384;2023-11-21T05:02:14;2.73;;;1.50;;
13785;SDS011;47474;48.824;9.384;2023-11-21T05:04:40;3.47;;;1.77;;
13785;SDS011;47474;48.824;9.384;2023-11-21T05:07:07;2.10;;;1.40;;
13785;SDS011;47474;48.824;9.384;2023-11-21T05:09:34;2.30;;;1.77;;
13785;SDS011;47474;48.824;9.384;2023-11-21T05:12:01;16.17;;;8.63;;
13785;SDS011;47474;48.824;9.384;2023-11-21T05:14:30;17.40;;;8.20;;
13785;SDS011;47474;48.824;9.384;2023-11-21T05:16:56;10.07;;;6.77;;
13785;SDS011;47474;48.824;9.384;2023-11-21T05:19:24;5.37;;;3.83;;
13785;SDS011;47474;48.824;9.384;2023-11-21T05:21:52;2.17;;;1.30;;
13785;SDS011;47474;48.824;9.384;2023-11-21T05:24:18;1.57;;;1.30;;
13785;SDS011;47474;48.824;9.384;2023-11-21T05:26:45;2.37;;;1.10;;
13785;SDS011;47474;48.824;9.384;2023-11-21T05:29:11;2.03;;;0.90;;
13785;SDS011;47474;48.824;9.384;2023-11-21T05:31:39;1.23;;;0.93;;
13785;SDS011;47474;48.824;9.384;2023-11-21T05:34:05;0.80;;;0.60;;
13785;SDS011;47474;48.824;9.384;2023-11-21T05:36:32;2.27;;;0.90;;
13785;SDS011;47474;48.824;9.384;2023-11-21T05:38:58;1.97;;;1.10;;
13785;SDS011;47474;48.824;9.384;2023-11-21T05:41:25;2.33;;;0.90;;
13785;SDS011;47474;48.824;9.384;2023-11-21T05:43:51;2.73;;;0.83;;
13785;SDS011;47474;48.824;9.384;2023-11-21T05:46:19;0.97;;;0.97;;
13785;SDS011;47474;48.824;9.384;2023-11-21T05:48:47;1.27;;;0.73;;
13785;SDS011;47474;48.824;9.384;2023-11-21T05:51:13;2.67;;;1.10;;
13785;SDS011;47474;48.824;9.384;2023-11-21T05:53:40;2.60;;;1.30;;
13785;SDS011;47474;48.824;9.384;2023-11-21T05:56:06;1.50;;;1.00;;
13785;SDS011;47474;48.824;9.384;2023-11-21T05:58:33;1.27;;;1.00;;
13785;SDS011;47474;48.824;9.384;2023-11-21T06:01:00;1.40;;;0.90;;
13785;SDS011;47474;48.824;9.384;2023-11-21T06:03:26;1.47;;;1.00;;
13785;SDS011;47474;48.824;9.384;2023-11-21T06:05:54;1.63;;;0.80;;
13785;SDS011;47474;48.824;9.384;2023-11-21T06:08:20;1.03;;;0.93;;
13785;SDS011;47474;48.824;9.384;2023-11-21T06:10:47;2.20;;;0.93;;
13785;SDS011;47474;48.824;9.384;2023-11-21T06:13:14;1.60;;;0.97;;
13785;SDS011;47474;48.824;9.384;2023-11-21T06:15:41;1.70;;;1.10;;
13785;SDS011;47474;48.824;9.384;2023-11-21T06:18:07;1.27;;;1.03;;
13785;SDS011;47474;48.824;9.384;2023-11-21T06:20:35;1.20;;;1.10;;
13785;SDS011;47474;48.824;9.384;2023-11-21T06:23:04;1.33;;;1.00;;
13785;SDS011;47474;48.824;9.384;2023-11-21T06:25:31;1.60;;;1.10;;
13785;SDS011;47474;48.824;9.384;2023-11-21T06:27:58;1.50;;;1.00;;
13785;SDS011;47474;48.824;9.384;2023-11-21T06:30:24;1.10;;;0.90;;
13785;SDS011;47474;48.824;9.384;2023-11-21T06:32:51;2.40;;;1.30;;
13785;SDS011;47474;48.824;9.384;2023-11-21T06:35:18;3.17;;;1.30;;
13785;SDS011;47474;48.824;9.384;2023-11-21T06:37:45;1.20;;;1.10;;
13785;SDS011;47474;48.824;9.384;2023-11-21T06:40:14;3.33;;;1.20;;
13785;SDS011;47474;48.824;9.384;2023-11-21T06:42:41;1.20;;;1.10;;
13785;SDS011;47474;48.824;9.384;2023-11-21T06:45:09;1.00;;;0.90;;
13785;SDS011;47474;48.824;9.384;2023-11-21T06:47:36;1.37;;;1.10;;
13785;SDS011;47474;48.824;9.384;2023-11-21T06:50:03;1.27;;;1.00;;
13785;SDS011;47474;48.824;9.384;2023-11-21T06:52:30;1.77;;;1.00;;
13785;SDS011;47474;48.824;9.384;2023-11-21T06:54:56;1.00;;;0.90;;
13785;SDS011;47474;48.824;9.384;2023-11-21T06:57:24;1.10;;;1.00;;
13785;SDS011;47474;48.824;9.384;2023-11-21T06:59:51;1.13;;;1.00;;
13785;SDS011;47474;48.824;9.384;2023-11-21T07:02:17;1.70;;;1.00;;
13785;SDS011;47474;48.824;9.384;2023-11-21T07:04:44;1.40;;;0.90;;
13785;SDS011;47474;48.824;9.384;2023-11-21T07:07:11;1.47;;;0.80;;
13785;SDS011;47474;48.824;9.384;2023-11-21T07:09:38;2.73;;;1.17;;
13785;SDS011;47474;48.824;9.384;2023-11-21T07:12:05;3.33;;;1.50;;
13785;SDS011;47474;48.824;9.384;2023-11-21T07:14:34;2.27;;;1.10;;
13785;SDS011;47474;48.824;9.384;2023-11-21T07:17:00;1.10;;;0.83;;
13785;SDS011;47474;48.824;9.384;2023-11-21T07:19:27;1.57;;;1.00;;
13785;SDS011;47474;48.824;9.384;2023-11-21T07:21:54;1.63;;;0.90;;
13785;SDS011;47474;48.824;9.384;2023-11-21T07:24:20;1.03;;;0.83;;
13785;SDS011;47474;48.824;9.384;2023-11-21T07:26:47;1.23;;;0.90;;
13785;SDS011;47474;48.824;9.384;2023-11-21T07:29:14;0.87;;;0.87;;
13785;SDS011;47474;48.824;9.384;2023-11-21T07:31:42;2.10;;;0.90;;
13785;SDS011;47474;48.824;9.384;2023-11-21T07:34:08;0.87;;;0.80;;
13785;SDS011;47474;48.824;9.384;2023-11-21T07:36:37;2.67;;;1.13;;
13785;SDS011;47474;48.824;9.384;2023-11-21T07:39:03;1.30;;;1.03;;
13785;SDS011;47474;48.824;9.384;2023-11-21T07:41:31;2.27;;;1.00;;
13785;SDS011;47474;48.824;9.384;2023-11-21T07:43:58;2.23;;;1.10;;
13785;SDS011;47474;48.824;9.384;2023-11-21T07:46:25;1.17;;;1.07;;
13785;SDS011;47474;48.824;9.384;2023-11-21T07:48:53;1.30;;;1.10;;
13785;SDS011;47474;48.824;9.384;2023-11-21T07:51:20;1.77;;;1.20;;
13785;SDS011;47474;48.824;9.384;2023-11-21T07:53:47;2.37;;;1.10;;
13785;SDS011;47474;48.824;9.384;2023-11-21T07:56:13;1.40;;;1.07;;
13785;SDS011;47474;48.824;9.384;2023-11-21T07:58:40;1.07;;;0.97;;
13785;SDS011;47474;48.824;9.384;2023-11-21T08:01:06;1.80;;;1.10;;
13785;SDS011;47474;48.824;9.384;2023-11-21T08:03:33;3.03;;;1.00;;
13785;SDS011;47474;48.824;9.384;2023-11-21T08:06:01;1.10;;;1.00;;
13785;SDS011;47474;48.824;9.384;2023-11-21T08:08:28;2.73;;;0.97;;
13785;SDS011;47474;48.824;9.384;2023-11-21T08:10:54;3.13;;;1.17;;
13785;SDS011;47474;48.824;9.384;2023-11-21T08:13:22;0.80;;;0.80;;
13785;SDS011;47474;48.824;9.384;2023-11-21T08:15:49;1.57;;;1.00;;
13785;SDS011;47474;48.824;9.384;2023-11-21T08:18:15;2.03;;;1.00;;
13785;SDS011;47474;48.824;9.384;2023-11-21T08:20:42;1.43;;;1.00;;
13785;SDS011;47474;48.824;9.384;2023-11-21T08:23:13;1.53;;;1.00;;
13785;SDS011;47474;48.824;9.384;2023-11-21T08:25:41;2.07;;;1.20;;
13785;SDS011;47474;48.824;9.384;2023-11-21T08:28:08;4.60;;;1.30;;
13785;SDS011;47474;48.824;9.384;2023-11-21T08:30:35;1.10;;;1.00;;
13785;SDS011;47474;48.824;9.384;2023-11-21T08:33:01;1.10;;;0.90;;
13785;SDS011;47474;48.824;9.384;2023-11-21T08:35:28;1.53;;;0.93;;
13785;SDS011;47474;48.824;9.384;2023-11-21T08:37:55;1.43;;;1.33;;
13785;SDS011;47474;48.824;9.384;2023-11-21T08:40:23;0.77;;;0.77;;
13785;SDS011;47474;48.824;9.384;2023-11-21T08:42:50;0.87;;;0.73;;
13785;SDS011;47474;48.824;9.384;2023-11-21T08:45:17;1.93;;;1.10;;
13785;SDS011;47474;48.824;9.384;2023-11-21T08:47:44;0.77;;;0.70;;
13785;SDS011;47474;48.824;9.384;2023-11-21T08:50:10;4.10;;;1.30;;
13785;SDS011;47474;48.824;9.384;2023-11-21T08:52:38;2.00;;;1.10;;
13785;SDS011;47474;48.824;9.384;2023-11-21T08:55:05;0.87;;;0.80;;
13785;SDS011;47474;48.824;9.384;2023-11-21T08:57:35;1.60;;;1.10;;
13785;SDS011;47474;48.824;9.384;2023-11-21T09:00:01;2.57;;;0.87;;
13785;SDS011;47474;48.824;9.384;2023-11-21T09:02:30;1.87;;;1.00;;
13785;SDS011;47474;48.824;9.384;2023-11-21T09:04:56;1.27;;;0.90;;
13785;SDS011;47474;48.824;9.384;2023-11-21T09:07:24;1.43;;;1.33;;
13785;SDS011;47474;48.824;9.384;2023-11-21T09:09:50;2.33;;;1.23;;
13785;SDS011;47474;48.824;9.384;2023-11-21T09:12:17;5.90;;;4.70;;
13785;SDS011;47474;48.824;9.384;2023-11-21T09:14:45;5.07;;;1.80;;
13785;SDS011;47474;48.824;9.384;2023-11-21T09:17:12;2.43;;;2.23;;
13785;SDS011;47474;48.824;9.384;2023-11-21T09:19:39;2.33;;;1.70;;
13785;SDS011;47474;48.824;9.384;2023-11-21T09:22:06;2.17;;;1.60;;
13785;SDS011;47474;48.824;9.384;2023-11-21T09:24:33;2.03;;;1.50;;
13785;SDS011;47474;48.824;9.384;2023-11-21T09:26:59;2.33;;;1.40;;
13785;SDS011;47474;48.824;9.384;2023-11-21T09:29:26;2.90;;;1.83;;
13785;SDS011;47474;48.824;9.384;2023-11-21T09:31:54;1.93;;;1.40;;
13785;SDS011;47474;48.824;9.384;2023-11-21T09:34:24;1.53;;;1.43;;
13785;SDS011;47474;48.824;9.384;2023-11-21T09:36:50;2.80;;;1.73;;
13785;SDS011;47474;48.824;9.384;2023-11-21T09:39:17;2.47;;;1.80;;
13785;SDS011;47474;48.824;9.384;2023-11-21T09:41:44;3.80;;;2.50;;
13785;SDS011;47474;48.824;9.384;2023-11-21T09:44:14;3.03;;;2.23;;
13785;SDS011;47474;48.824;9.384;2023-11-21T09:46:44;3.67;;;2.10;;
13785;SDS011;47474;48.824;9.384;2023-11-21T09:49:15;3.57;;;1.90;;
13785;SDS011;47474;48.824;9.384;2023-11-21T09:51:44;4.30;;;2.20;;
13785;SDS011;47474;48.824;9.384;2023-11-21T09:54:11;3.07;;;1.90;;
13785;SDS011;47474;48.824;9.384;2023-11-21T09:56:41;3.73;;;2.20;;
13785;SDS011;47474;48.824;9.384;2023-11-21T09:59:07;2.37;;;1.70;;
13785;SDS011;47474;48.824;9.384;2023-11-21T10:01:37;3.60;;;2.10;;
13785;SDS011;47474;48.824;9.384;2023-11-21T10:04:04;1.90;;;1.63;;
13785;SDS011;47474;48.824;9.384;2023-11-21T10:06:37;2.50;;;1.67;;
13785;SDS011;47474;48.824;9.384;2023-11-21T10:09:05;2.43;;;1.70;;
13785;SDS011;47474;48.824;9.384;2023-11-21T10:11:36;1.57;;;1.43;;
13785;SDS011;47474;48.824;9.384;2023-11-21T10:14:06;2.63;;;1.40;;
13785;SDS011;47474;48.824;9.384;2023-11-21T10:16:35;5.17;;;2.30;;
13785;SDS011;47474;48.824;9.384;2023-11-21T10:19:02;2.00;;;1.57;;
13785;SDS011;47474;48.824;9.384;2023-11-21T10:21:31;1.63;;;1.50;;
13785;SDS011;47474;48.824;9.384;2023-11-21T10:23:59;3.67;;;2.23;;
13785;SDS011;47474;48.824;9.384;2023-11-21T10:26:26;2.07;;;1.83;;
13785;SDS011;47474;48.824;9.384;2023-11-21T10:28:57;1.70;;;1.30;;
13785;SDS011;47474;48.824;9.384;2023-11-21T10:31:23;2.43;;;1.60;;
13785;SDS011;47474;48.824;9.384;2023-11-21T10:33:50;1.83;;;1.30;;
13785;SDS011;47474;48.824;9.384;2023-11-21T10:36:24;1.87;;;1.57;;
13785;SDS011;47474;48.824;9.384;2023-11-21T10:38:51;2.87;;;1.60;;
13785;SDS011;47474;48.824;9.384;2023-11-21T10:41:21;1.90;;;1.53;;
13785;SDS011;47474;48.824;9.384;2023-11-21T10:43:47;2.07;;;1.50;;
13785;SDS011;47474;48.824;9.384;2023-11-21T10:46:14;1.70;;;1.33;;
13785;SDS011;47474;48.824;9.384;2023-11-21T10:48:41;2.20;;;1.37;;
13785;SDS011;47474;48.824;9.384;2023-11-21T10:51:08;1.90;;;1.50;;
13785;SDS011;47474;48.824;9.384;2023-11-21T10:53:38;1.23;;;1.13;;
13785;SDS011;47474;48.824;9.384;2023-11-21T10:56:05;1.47;;;1.07;;
13785;SDS011;47474;48.824;9.384;2023-11-21T10:58:34;0.83;;;0.80;;
13785;SDS011;47474;48.824;9.384;2023-11-21T11:01:01;1.23;;;1.03;;
13785;SDS011;47474;48.824;9.384;2023-11-21T11:03:31;1.47;;;1.00;;
13785;SDS011;47474;48.824;9.384;2023-11-21T11:05:58;0.80;;;0.80;;
13785;SDS011;47474;48.824;9.384;2023-11-21T11:08:25;1.60;;;1.20;;
13785;SDS011;47474;48.824;9.384;2023-11-21T11:10:52;1.23;;;1.00;;
13785;SDS011;47474;48.824;9.384;2023-11-21T11:13:19;1.30;;;0.90;;
13785;SDS011;47474;48.824;9.384;2023-11-21T11:15:48;1.67;;;0.90;;
13785;SDS011;47474;48.824;9.384;2023-11-21T11:18:15;1.10;;;0.90;;
13785;SDS011;47474;48.824;9.384;2023-11-21T11:20:42;0.80;;;0.80;;
13785;SDS011;47474;48.824;9.384;2023-11-21T11:23:26;1.50;;;0.70;;
13785;SDS011;47474;48.824;9.384;2023-11-21T11:26:04;0.80;;;0.80;;
13785;SDS011;47474;48.824;9.384;2023-11-21T11:28:37;1.93;;;1.13;;
13785;SDS011;47474;48.824;9.384;2023-11-21T11:31:13;0.90;;;0.90;;
13785;SDS011;47474;48.824;9.384;2023-11-21T11:33:44;1.03;;;1.00;;
13785;SDS011;47474;48.824;9.384;2023-11-21T11:36:14;1.43;;;0.80;;
13785;SDS011;47474;48.824;9.384;2023-11-21T11:38:45;0.63;;;0.63;;
13785;SDS011;47474;48.824;9.384;2023-11-21T11:41:15;0.80;;;0.80;;
13785;SDS011;47474;48.824;9.384;2023-11-21T11:43:50;1.00;;;0.90;;
13785;SDS011;47474;48.824;9.384;2023-11-21T11:46:18;0.90;;;0.90;;
13785;SDS011;47474;48.824;9.384;2023-11-21T11:48:46;1.20;;;1.10;;
13785;SDS011;47474;48.824;9.384;2023-11-21T11:51:13;0.97;;;0.97;;
13785;SDS011;47474;48.824;9.384;2023-11-21T11:53:42;1.23;;;1.00;;
13785;SDS011;47474;48.824;9.384;2023-11-21T11:56:21;1.00;;;0.90;;
13785;SDS011;47474;48.824;9.384;2023-11-21T11:58:50;1.73;;;1.00;;
13785;SDS011;47474;48.824;9.384;2023-11-21T12:01:19;1.20;;;1.00;;
13785;SDS011;47474;48.824;9.384;2023-11-21T12:06:47;1.10;;;1.10;;
13785;SDS011;47474;48.824;9.384;2023-11-21T12:09:17;1.47;;;1.23;;
13785;SDS011;47474;48.824;9.384;2023-11-21T12:11:44;1.30;;;1.20;;
13785;SDS011;47474;48.824;9.384;2023-11-21T12:14:11;1.33;;;1.23;;
13785;SDS011;47474;48.824;9.384;2023-11-21T12:16:40;1.30;;;1.20;;
13785;SDS011;47474;48.824;9.384;2023-11-21T12:19:07;1.23;;;1.13;;
13785;SDS011;47474;48.824;9.384;2023-11-21T12:21:34;1.50;;;1.30;;
13785;SDS011;47474;48.824;9.384;2023-11-21T12:24:02;1.60;;;1.10;;
13785;SDS011;47474;48.824;9.384;2023-11-21T12:26:29;1.20;;;0.97;;
13785;SDS011;47474;48.824;9.384;2023-11-21T12:28:56;1.40;;;1.03;;
13785;SDS011;47474;48.824;9.384;2023-11-21T12:31:22;1.03;;;1.00;;
13785;SDS011;47474;48.824;9.384;2023-11-21T12:33:51;1.90;;;1.27;;
13785;SDS011;47474;48.824;9.384;2023-11-21T12:36:18;1.10;;;1.00;;
13785;SDS011;47474;48.824;9.384;2023-11-21T12:38:44;1.43;;;1.10;;
13785;SDS011;47474;48.824;9.384;2023-11-21T12:41:11;2.00;;;1.23;;
13785;SDS011;47474;48.824;9.384;2023-11-21T12:43:37;1.60;;;1.50;;
13785;SDS011;47474;48.824;9.384;2023-11-21T12:46:04;1.50;;;1.20;;
13785;SDS011;47474;48.824;9.384;2023-11-21T12:48:32;1.43;;;1.10;;
13785;SDS011;47474;48.824;9.384;2023-11-21T12:51:00;1.10;;;1.00;;
13785;SDS011;47474;48.824;9.384;2023-11-21T12:53:27;1.37;;;1.20;;
13785;SDS011;47474;48.824;9.384;2023-11-21T12:56:00;1.07;;;1.00;;
13785;SDS011;47474;48.824;9.384;2023-11-21T12:58:27;1.13;;;1.00;;
13785;SDS011;47474;48.824;9.384;2023-11-21T13:00:54;1.67;;;1.23;;
13785;SDS011;47474;48.824;9.384;2023-11-21T13:03:22;1.10;;;1.10;;
13785;SDS011;47474;48.824;9.384;2023-11-21T13:05:50;1.10;;;1.10;;
13785;SDS011;47474;48.824;9.384;2023-11-21T13:08:20;1.30;;;1.20;;
13785;SDS011;47474;48.824;9.384;2023-11-21T13:10:48;1.33;;;1.23;;
13785;SDS011;47474;48.824;9.384;2023-11-21T13:13:16;1.13;;;1.03;;
13785;SDS011;47474;48.824;9.384;2023-11-21T13:15:47;1.57;;;1.20;;
13785;SDS011;47474;48.824;9.384;2023-11-21T13:18:14;1.40;;;1.30;;
13785;SDS011;47474;48.824;9.384;2023-11-21T13:20:41;1.37;;;1.27;;
13785;SDS011;47474;48.824;9.384;2023-11-21T13:23:08;1.20;;;1.10;;
13785;SDS011;47474;48.824;9.384;2023-11-21T13:25:38;1.30;;;1.20;;
13785;SDS011;47474;48.824;9.384;2023-11-21T13:28:06;1.23;;;1.10;;
13785;SDS011;47474;48.824;9.384;2023-11-21T13:30:33;1.47;;;1.37;;
13785;SDS011;47474;48.824;9.384;2023-11-21T13:33:00;1.40;;;1.30;;
13785;SDS011;47474;48.824;9.384;2023-11-21T13:35:30;1.40;;;1.30;;
13785;SDS011;47474;48.824;9.384;2023-11-21T13:38:02;2.43;;;1.10;;
13785;SDS011;47474;48.824;9.384;2023-11-21T13:40:30;1.40;;;1.30;;
13785;SDS011;47474;48.824;9.384;2023-11-21T13:43:00;1.30;;;1.20;;
13785;SDS011;47474;48.824;9.384;2023-11-21T13:45:29;1.43;;;1.33;;
13785;SDS011;47474;48.824;9.384;2023-11-21T13:47:56;3.93;;;1.60;;
13785;SDS011;47474;48.824;9.384;2023-11-21T13:50:24;2.00;;;1.80;;
13785;SDS011;47474;48.824;9.384;2023-11-21T13:52:55;2.60;;;1.77;;
13785;SDS011;47474;48.824;9.384;2023-11-21T13:55:22;1.43;;;1.30;;
13785;SDS011;47474;48.824;9.384;2023-11-21T13:57:50;1.40;;;1.07;;
13785;SDS011;47474;48.824;9.384;2023-11-21T14:00:19;1.87;;;0.93;;
13785;SDS011;47474;48.824;9.384;2023-11-21T14:03:03;1.47;;;0.90;;
13785;SDS011;47474;48.824;9.384;2023-11-21T14:05:34;1.40;;;1.30;;
13785;SDS011;47474;48.824;9.384;2023-11-21T14:08:00;1.30;;;1.10;;
13785;SDS011;47474;48.824;9.384;2023-11-21T14:10:29;1.97;;;1.00;;
13785;SDS011;47474;48.824;9.384;2023-11-21T14:13:05;1.37;;;1.23;;
13785;SDS011;47474;48.824;9.384;2023-11-21T14:15:33;2.87;;;2.67;;
13785;SDS011;47474;48.824;9.384;2023-11-21T14:18:03;1.40;;;1.30;;
13785;SDS011;47474;48.824;9.384;2023-11-21T14:20:35;1.97;;;1.30;;
13785;SDS011;47474;48.824;9.384;2023-11-21T14:23:02;1.43;;;1.30;;
13785;SDS011;47474;48.824;9.384;2023-11-21T14:25:29;2.27;;;1.57;;
13785;SDS011;47474;48.824;9.384;2023-11-21T14:27:55;1.60;;;1.50;;
13785;SDS011;47474;48.824;9.384;2023-11-21T14:30:22;1.77;;;1.50;;
13785;SDS011;47474;48.824;9.384;2023-11-21T14:32:50;2.80;;;1.17;;
13785;SDS011;47474;48.824;9.384;2023-11-21T14:35:16;1.50;;;1.40;;
13785;SDS011;47474;48.824;9.384;2023-11-21T14:37:43;1.27;;;1.17;;
13785;SDS011;47474;48.824;9.384;2023-11-21T14:40:11;1.27;;;1.07;;
13785;SDS011;47474;48.824;9.384;2023-11-21T14:42:40;1.17;;;1.07;;
13785;SDS011;47474;48.824;9.384;2023-11-21T14:45:08;0.90;;;0.90;;
13785;SDS011;47474;48.824;9.384;2023-11-21T14:47:37;1.20;;;1.10;;
13785;SDS011;47474;48.824;9.384;2023-11-21T14:50:10;1.33;;;1.13;;
13785;SDS011;47474;48.824;9.384;2023-11-21T14:53:06;1.20;;;1.10;;